< < Back
Terminal Aerodrome Forecast


Current Version              Previous Versions:   1  2  3  4  5  6  7  8  9  

Terminal Aerodrome Forecast

617
FTUS42 KMLB 241700
TAFDAB
TAF
KDAB 241736Z 2418/2518 18005KT P6SM VCTS SCT035CB BKN050 OVC120
      TEMPO 2418/2420 3SM TSRA SCT012 BKN020CB OVC050
     FM242000 17007KT P6SM VCTS SCT035CB BKN050
      TEMPO 2420/2423 5SM SHRA BKN030
     FM250000 VRB04KT P6SM FEW030 SCT250
     FM250600 23003KT P6SM FEW020
     FM251400 23007KT P6SM SCT025 SCT050=



Latest METAR

900
SAUS80 KWBC 242300
MTRDAB
METAR KDAB 242253Z 15006KT 5SM TSRA BR FEW045CB SCT070 BKN110 24/22
A2999 RMK AO2 RAE06B35 SLP155 FRQ LTGIC E-S-SW TS E-S-SW
STNRY CB DSNT N P0002 T02440222


USA.gov is the U.S. government's official web portal to all federal, state and local government web resources and services.